sensor_id;sensor_type;location;lat;lon;timestamp;temperature;humidity
15172;DHT22;7686;52.184;9.280;2023-03-23T00:01:25;27.20;34.00
15172;DHT22;7686;52.184;9.280;2023-03-23T00:03:53;27.10;34.00
15172;DHT22;7686;52.184;9.280;2023-03-23T00:06:23;27.00;33.80
15172;DHT22;7686;52.184;9.280;2023-03-23T00:08:50;27.00;33.80
15172;DHT22;7686;52.184;9.280;2023-03-23T00:11:20;27.10;34.00
15172;DHT22;7686;52.184;9.280;2023-03-23T00:13:48;27.00;33.90
15172;DHT22;7686;52.184;9.280;2023-03-23T00:16:19;27.10;33.90
15172;DHT22;7686;52.184;9.280;2023-03-23T00:18:50;27.00;33.90
15172;DHT22;7686;52.184;9.280;2023-03-23T00:21:21;27.00;33.90
15172;DHT22;7686;52.184;9.280;2023-03-23T00:23:51;27.00;34.00
15172;DHT22;7686;52.184;9.280;2023-03-23T00:26:17;27.00;34.00
15172;DHT22;7686;52.184;9.280;2023-03-23T00:28:43;26.90;34.00
15172;DHT22;7686;52.184;9.280;2023-03-23T00:31:12;26.90;34.00
15172;DHT22;7686;52.184;9.280;2023-03-23T00:33:39;26.90;34.00
15172;DHT22;7686;52.184;9.280;2023-03-23T00:36:11;26.90;34.00
15172;DHT22;7686;52.184;9.280;2023-03-23T00:38:37;27.00;34.10
15172;DHT22;7686;52.184;9.280;2023-03-23T00:41:04;26.90;34.00
15172;DHT22;7686;52.184;9.280;2023-03-23T00:43:32;26.90;34.00
15172;DHT22;7686;52.184;9.280;2023-03-23T00:45:58;26.90;34.10
15172;DHT22;7686;52.184;9.280;2023-03-23T00:48:27;26.80;34.10
15172;DHT22;7686;52.184;9.280;2023-03-23T00:50:53;26.90;34.10
15172;DHT22;7686;52.184;9.280;2023-03-23T00:53:19;26.90;34.10
15172;DHT22;7686;52.184;9.280;2023-03-23T00:55:47;26.80;34.10
15172;DHT22;7686;52.184;9.280;2023-03-23T00:58:14;26.80;34.10
15172;DHT22;7686;52.184;9.280;2023-03-23T01:00:40;26.80;34.10
15172;DHT22;7686;52.184;9.280;2023-03-23T01:03:07;26.80;34.20
15172;DHT22;7686;52.184;9.280;2023-03-23T01:05:38;26.70;34.10
15172;DHT22;7686;52.184;9.280;2023-03-23T01:08:04;26.70;34.20
15172;DHT22;7686;52.184;9.280;2023-03-23T01:10:31;26.70;34.20
15172;DHT22;7686;52.184;9.280;2023-03-23T01:13:01;26.70;34.40
15172;DHT22;7686;52.184;9.280;2023-03-23T01:15:28;26.80;34.20
15172;DHT22;7686;52.184;9.280;2023-03-23T01:17:54;26.70;34.30
15172;DHT22;7686;52.184;9.280;2023-03-23T01:20:21;26.70;34.30
15172;DHT22;7686;52.184;9.280;2023-03-23T01:22:47;26.70;34.30
15172;DHT22;7686;52.184;9.280;2023-03-23T01:25:13;26.70;34.30
15172;DHT22;7686;52.184;9.280;2023-03-23T01:27:39;26.70;34.30
15172;DHT22;7686;52.184;9.280;2023-03-23T01:30:07;26.70;34.40
15172;DHT22;7686;52.184;9.280;2023-03-23T01:32:33;26.80;34.40
15172;DHT22;7686;52.184;9.280;2023-03-23T01:34:58;26.70;34.40
15172;DHT22;7686;52.184;9.280;2023-03-23T01:37:24;26.70;34.40
15172;DHT22;7686;52.184;9.280;2023-03-23T01:39:55;26.70;34.40
15172;DHT22;7686;52.184;9.280;2023-03-23T01:42:26;26.60;34.40
15172;DHT22;7686;52.184;9.280;2023-03-23T01:47:21;26.70;34.50
15172;DHT22;7686;52.184;9.280;2023-03-23T01:49:49;26.60;34.40
15172;DHT22;7686;52.184;9.280;2023-03-23T01:52:25;26.60;34.40
15172;DHT22;7686;52.184;9.280;2023-03-23T01:54:53;26.80;34.60
15172;DHT22;7686;52.184;9.280;2023-03-23T01:57:22;26.60;34.50
15172;DHT22;7686;52.184;9.280;2023-03-23T01:59:50;26.60;34.50
15172;DHT22;7686;52.184;9.280;2023-03-23T02:02:18;26.60;34.50
15172;DHT22;7686;52.184;9.280;2023-03-23T02:04:45;26.60;34.50
15172;DHT22;7686;52.184;9.280;2023-03-23T02:07:13;26.70;34.70
15172;DHT22;7686;52.184;9.280;2023-03-23T02:09:39;26.60;34.50
15172;DHT22;7686;52.184;9.280;2023-03-23T02:12:05;26.60;34.60
15172;DHT22;7686;52.184;9.280;2023-03-23T02:14:31;26.60;34.60
15172;DHT22;7686;52.184;9.280;2023-03-23T02:17:27;26.60;34.60
15172;DHT22;7686;52.184;9.280;2023-03-23T02:28:04;26.50;34.60
15172;DHT22;7686;52.184;9.280;2023-03-23T02:36:16;26.50;34.70
15172;DHT22;7686;52.184;9.280;2023-03-23T02:41:24;26.50;34.70
15172;DHT22;7686;52.184;9.280;2023-03-23T02:43:51;26.50;34.70
15172;DHT22;7686;52.184;9.280;2023-03-23T02:46:18;26.60;34.80
15172;DHT22;7686;52.184;9.280;2023-03-23T02:48:47;26.50;34.80
15172;DHT22;7686;52.184;9.280;2023-03-23T02:51:18;26.40;34.80
15172;DHT22;7686;52.184;9.280;2023-03-23T02:53:45;26.50;34.80
15172;DHT22;7686;52.184;9.280;2023-03-23T02:56:12;26.50;34.80
15172;DHT22;7686;52.184;9.280;2023-03-23T02:58:39;26.50;34.80
15172;DHT22;7686;52.184;9.280;2023-03-23T03:01:44;26.50;34.80
15172;DHT22;7686;52.184;9.280;2023-03-23T03:04:07;26.40;34.90
15172;DHT22;7686;52.184;9.280;2023-03-23T03:09:12;26.40;34.80
15172;DHT22;7686;52.184;9.280;2023-03-23T03:11:42;26.60;34.80
15172;DHT22;7686;52.184;9.280;2023-03-23T03:14:16;26.40;34.80
15172;DHT22;7686;52.184;9.280;2023-03-23T03:16:56;26.40;34.80
15172;DHT22;7686;52.184;9.280;2023-03-23T03:19:23;26.50;35.60
15172;DHT22;7686;52.184;9.280;2023-03-23T03:21:52;26.40;34.70
15172;DHT22;7686;52.184;9.280;2023-03-23T03:24:20;26.50;34.80
15172;DHT22;7686;52.184;9.280;2023-03-23T03:26:49;26.50;34.80
15172;DHT22;7686;52.184;9.280;2023-03-23T03:29:18;26.30;34.70
15172;DHT22;7686;52.184;9.280;2023-03-23T03:31:46;26.50;34.90
15172;DHT22;7686;52.184;9.280;2023-03-23T03:34:14;26.40;34.80
15172;DHT22;7686;52.184;9.280;2023-03-23T03:36:44;26.50;35.00
15172;DHT22;7686;52.184;9.280;2023-03-23T03:39:12;26.40;34.80
15172;DHT22;7686;52.184;9.280;2023-03-23T03:41:38;26.40;34.80
15172;DHT22;7686;52.184;9.280;2023-03-23T03:44:05;26.40;34.80
15172;DHT22;7686;52.184;9.280;2023-03-23T03:46:32;26.50;34.90
15172;DHT22;7686;52.184;9.280;2023-03-23T03:48:59;26.40;34.80
15172;DHT22;7686;52.184;9.280;2023-03-23T03:51:26;26.40;34.80
15172;DHT22;7686;52.184;9.280;2023-03-23T03:53:52;26.40;34.80
15172;DHT22;7686;52.184;9.280;2023-03-23T03:56:17;26.40;34.90
15172;DHT22;7686;52.184;9.280;2023-03-23T03:58:45;26.50;35.00
15172;DHT22;7686;52.184;9.280;2023-03-23T04:01:11;26.40;34.90
15172;DHT22;7686;52.184;9.280;2023-03-23T04:03:37;26.40;34.90
15172;DHT22;7686;52.184;9.280;2023-03-23T04:06:03;26.40;35.00
15172;DHT22;7686;52.184;9.280;2023-03-23T04:08:29;26.40;34.90
15172;DHT22;7686;52.184;9.280;2023-03-23T04:10:55;26.40;35.00
15172;DHT22;7686;52.184;9.280;2023-03-23T04:13:21;26.40;34.90
15172;DHT22;7686;52.184;9.280;2023-03-23T04:15:48;26.50;35.00
15172;DHT22;7686;52.184;9.280;2023-03-23T04:18:15;26.40;35.00
15172;DHT22;7686;52.184;9.280;2023-03-23T04:20:43;26.40;35.00
15172;DHT22;7686;52.184;9.280;2023-03-23T04:23:10;26.40;35.00
15172;DHT22;7686;52.184;9.280;2023-03-23T04:25:35;26.30;35.00
15172;DHT22;7686;52.184;9.280;2023-03-23T04:28:01;26.30;35.00
15172;DHT22;7686;52.184;9.280;2023-03-23T04:30:28;26.30;35.00
15172;DHT22;7686;52.184;9.280;2023-03-23T04:32:56;26.30;35.00
15172;DHT22;7686;52.184;9.280;2023-03-23T04:35:24;26.40;35.10
15172;DHT22;7686;52.184;9.280;2023-03-23T04:37:53;26.30;35.00
15172;DHT22;7686;52.184;9.280;2023-03-23T04:40:20;26.30;35.10
15172;DHT22;7686;52.184;9.280;2023-03-23T04:42:46;26.30;35.10
15172;DHT22;7686;52.184;9.280;2023-03-23T04:45:13;26.40;35.10
15172;DHT22;7686;52.184;9.280;2023-03-23T04:47:40;26.40;35.20
15172;DHT22;7686;52.184;9.280;2023-03-23T04:50:11;26.30;35.80
15172;DHT22;7686;52.184;9.280;2023-03-23T04:52:39;26.40;35.20
15172;DHT22;7686;52.184;9.280;2023-03-23T04:55:11;26.40;35.20
15172;DHT22;7686;52.184;9.280;2023-03-23T04:57:37;26.30;35.20
15172;DHT22;7686;52.184;9.280;2023-03-23T05:00:04;26.30;35.10
15172;DHT22;7686;52.184;9.280;2023-03-23T05:02:37;26.20;35.10
15172;DHT22;7686;52.184;9.280;2023-03-23T05:05:09;26.40;35.40
15172;DHT22;7686;52.184;9.280;2023-03-23T05:07:37;26.40;35.30
15172;DHT22;7686;52.184;9.280;2023-03-23T05:10:04;26.40;35.60
15172;DHT22;7686;52.184;9.280;2023-03-23T05:12:30;26.40;35.50
15172;DHT22;7686;52.184;9.280;2023-03-23T05:14:56;26.40;35.50
15172;DHT22;7686;52.184;9.280;2023-03-23T05:17:22;26.40;35.50
15172;DHT22;7686;52.184;9.280;2023-03-23T05:19:52;26.50;35.60
15172;DHT22;7686;52.184;9.280;2023-03-23T05:22:18;26.50;35.70
15172;DHT22;7686;52.184;9.280;2023-03-23T05:24:47;26.50;35.70
15172;DHT22;7686;52.184;9.280;2023-03-23T05:27:13;26.60;35.70
15172;DHT22;7686;52.184;9.280;2023-03-23T05:29:40;26.60;35.70
15172;DHT22;7686;52.184;9.280;2023-03-23T05:32:09;26.70;35.80
15172;DHT22;7686;52.184;9.280;2023-03-23T05:34:36;26.70;35.80
15172;DHT22;7686;52.184;9.280;2023-03-23T05:37:03;26.70;35.70
15172;DHT22;7686;52.184;9.280;2023-03-23T05:39:29;26.80;35.70
15172;DHT22;7686;52.184;9.280;2023-03-23T05:41:56;26.80;35.70
15172;DHT22;7686;52.184;9.280;2023-03-23T05:44:23;26.90;35.70
15172;DHT22;7686;52.184;9.280;2023-03-23T05:46:48;26.90;35.60
15172;DHT22;7686;52.184;9.280;2023-03-23T05:49:15;27.00;35.80
15172;DHT22;7686;52.184;9.280;2023-03-23T05:51:42;27.00;35.60
15172;DHT22;7686;52.184;9.280;2023-03-23T05:54:09;27.00;35.50
15172;DHT22;7686;52.184;9.280;2023-03-23T05:56:36;27.00;35.50
15172;DHT22;7686;52.184;9.280;2023-03-23T05:59:02;27.10;35.50
15172;DHT22;7686;52.184;9.280;2023-03-23T06:01:28;27.10;35.40
15172;DHT22;7686;52.184;9.280;2023-03-23T06:03:54;27.10;35.30
15172;DHT22;7686;52.184;9.280;2023-03-23T06:06:28;27.30;35.50
15172;DHT22;7686;52.184;9.280;2023-03-23T06:08:55;27.20;35.30
15172;DHT22;7686;52.184;9.280;2023-03-23T06:11:22;27.20;35.30
15172;DHT22;7686;52.184;9.280;2023-03-23T06:13:48;27.20;35.30
15172;DHT22;7686;52.184;9.280;2023-03-23T06:16:14;27.30;35.40
15172;DHT22;7686;52.184;9.280;2023-03-23T06:18:40;27.20;35.30
15172;DHT22;7686;52.184;9.280;2023-03-23T06:21:06;27.30;35.30
15172;DHT22;7686;52.184;9.280;2023-03-23T06:23:34;27.30;35.40
15172;DHT22;7686;52.184;9.280;2023-03-23T06:26:02;27.30;35.30
15172;DHT22;7686;52.184;9.280;2023-03-23T06:28:29;27.40;35.40
15172;DHT22;7686;52.184;9.280;2023-03-23T06:30:55;27.30;35.30
15172;DHT22;7686;52.184;9.280;2023-03-23T06:33:23;27.40;35.30
15172;DHT22;7686;52.184;9.280;2023-03-23T06:35:50;27.40;35.30
15172;DHT22;7686;52.184;9.280;2023-03-23T06:38:16;27.40;35.30
15172;DHT22;7686;52.184;9.280;2023-03-23T06:40:42;27.50;35.30
15172;DHT22;7686;52.184;9.280;2023-03-23T06:43:12;27.50;35.20
15172;DHT22;7686;52.184;9.280;2023-03-23T06:45:39;27.50;35.20
15172;DHT22;7686;52.184;9.280;2023-03-23T06:48:05;27.50;35.20
15172;DHT22;7686;52.184;9.280;2023-03-23T06:50:31;27.50;35.10
15172;DHT22;7686;52.184;9.280;2023-03-23T06:52:57;27.50;35.10
15172;DHT22;7686;52.184;9.280;2023-03-23T06:55:23;27.60;35.10
15172;DHT22;7686;52.184;9.280;2023-03-23T06:57:48;27.60;35.10
15172;DHT22;7686;52.184;9.280;2023-03-23T07:00:14;27.60;35.00
15172;DHT22;7686;52.184;9.280;2023-03-23T07:02:41;27.60;35.00
15172;DHT22;7686;52.184;9.280;2023-03-23T07:05:08;27.60;34.90
15172;DHT22;7686;52.184;9.280;2023-03-23T07:07:36;27.60;35.00
15172;DHT22;7686;52.184;9.280;2023-03-23T07:10:03;27.60;35.60
15172;DHT22;7686;52.184;9.280;2023-03-23T07:12:29;27.70;35.00
15172;DHT22;7686;52.184;9.280;2023-03-23T07:14:55;27.70;34.90
15172;DHT22;7686;52.184;9.280;2023-03-23T07:17:21;27.70;34.90
15172;DHT22;7686;52.184;9.280;2023-03-23T07:19:46;27.70;34.80
15172;DHT22;7686;52.184;9.280;2023-03-23T07:22:12;27.70;34.80
15172;DHT22;7686;52.184;9.280;2023-03-23T07:24:38;27.80;34.90
15172;DHT22;7686;52.184;9.280;2023-03-23T07:27:03;27.90;34.90
15172;DHT22;7686;52.184;9.280;2023-03-23T07:29:29;27.80;34.80
15172;DHT22;7686;52.184;9.280;2023-03-23T07:31:56;27.80;34.80
15172;DHT22;7686;52.184;9.280;2023-03-23T07:34:22;27.80;34.80
15172;DHT22;7686;52.184;9.280;2023-03-23T07:36:48;27.80;34.80
15172;DHT22;7686;52.184;9.280;2023-03-23T07:39:14;27.80;35.00
15172;DHT22;7686;52.184;9.280;2023-03-23T07:41:39;27.80;34.80
15172;DHT22;7686;52.184;9.280;2023-03-23T07:44:05;27.70;34.60
15172;DHT22;7686;52.184;9.280;2023-03-23T07:46:32;27.90;34.50
15172;DHT22;7686;52.184;9.280;2023-03-23T07:48:58;27.90;34.50
15172;DHT22;7686;52.184;9.280;2023-03-23T07:51:24;27.90;34.40
15172;DHT22;7686;52.184;9.280;2023-03-23T07:53:50;27.90;34.30
15172;DHT22;7686;52.184;9.280;2023-03-23T07:56:17;27.90;34.20
15172;DHT22;7686;52.184;9.280;2023-03-23T07:58:46;28.00;34.20
15172;DHT22;7686;52.184;9.280;2023-03-23T08:01:11;28.00;34.10
15172;DHT22;7686;52.184;9.280;2023-03-23T08:03:37;28.00;34.00
15172;DHT22;7686;52.184;9.280;2023-03-23T08:06:04;28.00;33.90
15172;DHT22;7686;52.184;9.280;2023-03-23T08:08:30;28.00;33.90
15172;DHT22;7686;52.184;9.280;2023-03-23T08:10:57;28.00;33.80
15172;DHT22;7686;52.184;9.280;2023-03-23T08:13:22;28.00;33.80
15172;DHT22;7686;52.184;9.280;2023-03-23T08:15:48;28.00;33.70
15172;DHT22;7686;52.184;9.280;2023-03-23T08:18:15;28.00;33.70
15172;DHT22;7686;52.184;9.280;2023-03-23T08:20:41;28.00;33.60
15172;DHT22;7686;52.184;9.280;2023-03-23T08:23:07;28.00;33.60
15172;DHT22;7686;52.184;9.280;2023-03-23T08:25:33;28.00;33.60
15172;DHT22;7686;52.184;9.280;2023-03-23T08:28:00;28.00;33.50
15172;DHT22;7686;52.184;9.280;2023-03-23T08:30:27;28.00;33.50
15172;DHT22;7686;52.184;9.280;2023-03-23T08:32:57;28.00;33.60
15172;DHT22;7686;52.184;9.280;2023-03-23T08:35:24;28.00;33.70
15172;DHT22;7686;52.184;9.280;2023-03-23T08:37:50;28.00;33.70
15172;DHT22;7686;52.184;9.280;2023-03-23T08:40:18;28.00;34.40
15172;DHT22;7686;52.184;9.280;2023-03-23T08:42:45;28.00;33.70
15172;DHT22;7686;52.184;9.280;2023-03-23T08:45:14;28.00;33.60
15172;DHT22;7686;52.184;9.280;2023-03-23T08:47:42;28.00;33.60
15172;DHT22;7686;52.184;9.280;2023-03-23T08:50:14;28.10;33.70
15172;DHT22;7686;52.184;9.280;2023-03-23T08:52:40;28.10;33.60
15172;DHT22;7686;52.184;9.280;2023-03-23T08:55:07;28.10;33.70
15172;DHT22;7686;52.184;9.280;2023-03-23T08:57:35;28.10;33.70
15172;DHT22;7686;52.184;9.280;2023-03-23T09:00:04;28.10;33.70
15172;DHT22;7686;52.184;9.280;2023-03-23T09:02:40;28.10;33.60
15172;DHT22;7686;52.184;9.280;2023-03-23T09:05:05;28.10;33.70
15172;DHT22;7686;52.184;9.280;2023-03-23T09:07:32;28.10;33.60
15172;DHT22;7686;52.184;9.280;2023-03-23T09:09:58;28.10;33.60
15172;DHT22;7686;52.184;9.280;2023-03-23T09:12:23;28.10;33.60
15172;DHT22;7686;52.184;9.280;2023-03-23T09:14:49;28.20;33.70
15172;DHT22;7686;52.184;9.280;2023-03-23T09:17:15;28.20;33.60
15172;DHT22;7686;52.184;9.280;2023-03-23T09:19:41;28.20;33.70
15172;DHT22;7686;52.184;9.280;2023-03-23T09:22:07;28.30;33.70
15172;DHT22;7686;52.184;9.280;2023-03-23T09:24:33;28.20;33.60
15172;DHT22;7686;52.184;9.280;2023-03-23T09:26:59;28.20;33.60
15172;DHT22;7686;52.184;9.280;2023-03-23T09:29:26;28.40;33.70
15172;DHT22;7686;52.184;9.280;2023-03-23T09:31:55;28.30;33.60
15172;DHT22;7686;52.184;9.280;2023-03-23T09:34:21;28.20;33.50
15172;DHT22;7686;52.184;9.280;2023-03-23T09:36:47;28.20;33.60
15172;DHT22;7686;52.184;9.280;2023-03-23T09:39:13;28.40;33.70
15172;DHT22;7686;52.184;9.280;2023-03-23T09:52:44;28.30;33.50
15172;DHT22;7686;52.184;9.280;2023-03-23T09:55:14;28.30;33.50
15172;DHT22;7686;52.184;9.280;2023-03-23T10:00:30;28.30;33.50
15172;DHT22;7686;52.184;9.280;2023-03-23T10:03:10;28.30;34.20
15172;DHT22;7686;52.184;9.280;2023-03-23T10:05:42;28.30;33.50
15172;DHT22;7686;52.184;9.280;2023-03-23T10:08:25;28.40;33.50
15172;DHT22;7686;52.184;9.280;2023-03-23T10:11:12;28.40;33.50
15172;DHT22;7686;52.184;9.280;2023-03-23T10:16:21;28.40;33.50
15172;DHT22;7686;52.184;9.280;2023-03-23T10:21:30;28.40;33.50
15172;DHT22;7686;52.184;9.280;2023-03-23T10:24:01;28.40;33.50
15172;DHT22;7686;52.184;9.280;2023-03-23T10:29:39;28.40;33.50
15172;DHT22;7686;52.184;9.280;2023-03-23T10:32:15;28.40;33.50
15172;DHT22;7686;52.184;9.280;2023-03-23T10:34:55;28.40;33.50
15172;DHT22;7686;52.184;9.280;2023-03-23T10:37:32;28.40;33.60
15172;DHT22;7686;52.184;9.280;2023-03-23T10:40:03;28.40;33.50
15172;DHT22;7686;52.184;9.280;2023-03-23T10:42:36;28.50;33.60
15172;DHT22;7686;52.184;9.280;2023-03-23T10:45:20;28.40;33.60
15172;DHT22;7686;52.184;9.280;2023-03-23T10:48:16;28.50;33.60
15172;DHT22;7686;52.184;9.280;2023-03-23T10:50:46;28.50;33.60
15172;DHT22;7686;52.184;9.280;2023-03-23T10:53:37;28.50;33.60
15172;DHT22;7686;52.184;9.280;2023-03-23T10:56:04;28.40;33.70
15172;DHT22;7686;52.184;9.280;2023-03-23T10:58:35;28.50;34.00
15172;DHT22;7686;52.184;9.280;2023-03-23T11:01:04;28.50;33.90
15172;DHT22;7686;52.184;9.280;2023-03-23T11:03:44;28.60;33.90
15172;DHT22;7686;52.184;9.280;2023-03-23T11:06:27;28.70;33.80
15172;DHT22;7686;52.184;9.280;2023-03-23T11:08:58;28.80;33.80
15172;DHT22;7686;52.184;9.280;2023-03-23T11:11:30;28.90;33.70
15172;DHT22;7686;52.184;9.280;2023-03-23T11:14:01;28.90;33.70
15172;DHT22;7686;52.184;9.280;2023-03-23T11:16:33;28.90;33.60
15172;DHT22;7686;52.184;9.280;2023-03-23T11:19:11;29.00;33.60
15172;DHT22;7686;52.184;9.280;2023-03-23T11:21:37;29.00;33.50
15172;DHT22;7686;52.184;9.280;2023-03-23T11:24:04;29.10;33.50
15172;DHT22;7686;52.184;9.280;2023-03-23T11:26:35;29.10;33.40
15172;DHT22;7686;52.184;9.280;2023-03-23T11:29:12;29.20;33.40
15172;DHT22;7686;52.184;9.280;2023-03-23T11:31:53;29.20;33.30
15172;DHT22;7686;52.184;9.280;2023-03-23T11:34:24;29.20;33.30
15172;DHT22;7686;52.184;9.280;2023-03-23T11:37:19;29.30;33.30
15172;DHT22;7686;52.184;9.280;2023-03-23T11:40:14;29.30;33.20
15172;DHT22;7686;52.184;9.280;2023-03-23T11:45:33;29.30;33.10
15172;DHT22;7686;52.184;9.280;2023-03-23T11:53:35;29.40;33.00
15172;DHT22;7686;52.184;9.280;2023-03-23T11:58:56;29.40;32.90
15172;DHT22;7686;52.184;9.280;2023-03-23T12:07:35;29.40;33.00
15172;DHT22;7686;52.184;9.280;2023-03-23T12:13:03;29.40;33.00
15172;DHT22;7686;52.184;9.280;2023-03-23T12:16:11;29.40;33.00
15172;DHT22;7686;52.184;9.280;2023-03-23T12:24:32;29.30;33.10
15172;DHT22;7686;52.184;9.280;2023-03-23T12:27:25;29.30;33.10
15172;DHT22;7686;52.184;9.280;2023-03-23T12:30:01;29.30;33.20
15172;DHT22;7686;52.184;9.280;2023-03-23T12:32:53;29.30;33.20
15172;DHT22;7686;52.184;9.280;2023-03-23T12:35:44;29.30;33.30
15172;DHT22;7686;52.184;9.280;2023-03-23T12:38:27;29.30;33.20
15172;DHT22;7686;52.184;9.280;2023-03-23T12:44:09;29.20;33.20
15172;DHT22;7686;52.184;9.280;2023-03-23T12:55:04;29.10;33.30
15172;DHT22;7686;52.184;9.280;2023-03-23T13:00:31;29.10;33.30
15172;DHT22;7686;52.184;9.280;2023-03-23T13:03:05;29.10;33.40
15172;DHT22;7686;52.184;9.280;2023-03-23T13:08:55;29.10;33.40
15172;DHT22;7686;52.184;9.280;2023-03-23T13:11:36;29.00;33.30
15172;DHT22;7686;52.184;9.280;2023-03-23T13:14:24;29.00;33.40
15172;DHT22;7686;52.184;9.280;2023-03-23T13:22:56;28.90;33.40
15172;DHT22;7686;52.184;9.280;2023-03-23T13:25:49;28.90;33.40
15172;DHT22;7686;52.184;9.280;2023-03-23T13:28:22;28.90;33.40
15172;DHT22;7686;52.184;9.280;2023-03-23T13:31:13;28.90;33.40
15172;DHT22;7686;52.184;9.280;2023-03-23T13:33:52;28.90;33.40
15172;DHT22;7686;52.184;9.280;2023-03-23T13:36:33;28.80;33.40
15172;DHT22;7686;52.184;9.280;2023-03-23T13:39:03;28.80;33.40
15172;DHT22;7686;52.184;9.280;2023-03-23T13:41:30;28.80;33.50
15172;DHT22;7686;52.184;9.280;2023-03-23T13:44:16;28.80;33.50
15172;DHT22;7686;52.184;9.280;2023-03-23T13:46:55;28.80;33.50
15172;DHT22;7686;52.184;9.280;2023-03-23T13:49:22;28.80;33.50
15172;DHT22;7686;52.184;9.280;2023-03-23T13:54:41;28.80;33.60
15172;DHT22;7686;52.184;9.280;2023-03-23T13:59:59;28.70;33.50
15172;DHT22;7686;52.184;9.280;2023-03-23T14:02:37;28.70;33.50
15172;DHT22;7686;52.184;9.280;2023-03-23T14:05:31;28.70;33.60
15172;DHT22;7686;52.184;9.280;2023-03-23T14:07:58;28.60;33.50
15172;DHT22;7686;52.184;9.280;2023-03-23T14:10:34;28.60;33.50
15172;DHT22;7686;52.184;9.280;2023-03-23T14:13:02;28.60;33.60
15172;DHT22;7686;52.184;9.280;2023-03-23T14:15:30;28.60;33.70
15172;DHT22;7686;52.184;9.280;2023-03-23T14:17:56;28.60;33.60
15172;DHT22;7686;52.184;9.280;2023-03-23T14:20:33;28.60;33.70
15172;DHT22;7686;52.184;9.280;2023-03-23T14:23:00;28.60;33.90
15172;DHT22;7686;52.184;9.280;2023-03-23T14:25:29;28.50;33.80
15172;DHT22;7686;52.184;9.280;2023-03-23T14:27:56;28.50;33.80
15172;DHT22;7686;52.184;9.280;2023-03-23T14:30:24;28.50;33.90
15172;DHT22;7686;52.184;9.280;2023-03-23T14:32:52;28.70;34.10
15172;DHT22;7686;52.184;9.280;2023-03-23T14:35:29;28.60;33.90
15172;DHT22;7686;52.184;9.280;2023-03-23T14:37:55;28.60;34.00
15172;DHT22;7686;52.184;9.280;2023-03-23T14:40:22;28.60;33.90
15172;DHT22;7686;52.184;9.280;2023-03-23T14:42:51;28.60;33.90
15172;DHT22;7686;52.184;9.280;2023-03-23T14:45:21;28.80;34.00
15172;DHT22;7686;52.184;9.280;2023-03-23T14:47:59;28.70;34.00
15172;DHT22;7686;52.184;9.280;2023-03-23T14:50:37;28.70;33.90
15172;DHT22;7686;52.184;9.280;2023-03-23T14:53:31;28.70;33.90
15172;DHT22;7686;52.184;9.280;2023-03-23T14:56:00;28.70;33.90
15172;DHT22;7686;52.184;9.280;2023-03-23T14:58:28;28.80;33.90
15172;DHT22;7686;52.184;9.280;2023-03-23T15:03:20;28.80;33.90
15172;DHT22;7686;52.184;9.280;2023-03-23T15:05:50;28.90;33.90
15172;DHT22;7686;52.184;9.280;2023-03-23T15:08:23;28.80;33.90
15172;DHT22;7686;52.184;9.280;2023-03-23T15:11:02;28.80;33.80
15172;DHT22;7686;52.184;9.280;2023-03-23T15:13:28;28.80;33.90
15172;DHT22;7686;52.184;9.280;2023-03-23T15:16:03;28.80;33.80
15172;DHT22;7686;52.184;9.280;2023-03-23T15:18:35;28.80;33.90
15172;DHT22;7686;52.184;9.280;2023-03-23T15:21:21;28.80;33.90
15172;DHT22;7686;52.184;9.280;2023-03-23T15:23:47;28.80;33.80
15172;DHT22;7686;52.184;9.280;2023-03-23T15:26:25;28.80;33.90
15172;DHT22;7686;52.184;9.280;2023-03-23T15:29:09;28.80;33.90
15172;DHT22;7686;52.184;9.280;2023-03-23T15:31:45;28.80;33.90
15172;DHT22;7686;52.184;9.280;2023-03-23T15:34:17;28.80;33.90
15172;DHT22;7686;52.184;9.280;2023-03-23T15:36:44;28.80;33.90
15172;DHT22;7686;52.184;9.280;2023-03-23T15:39:12;28.90;34.00
15172;DHT22;7686;52.184;9.280;2023-03-23T15:41:47;28.80;34.00
15172;DHT22;7686;52.184;9.280;2023-03-23T15:44:25;28.90;34.00
15172;DHT22;7686;52.184;9.280;2023-03-23T15:47:01;28.90;34.00
15172;DHT22;7686;52.184;9.280;2023-03-23T15:49:27;28.90;34.00
15172;DHT22;7686;52.184;9.280;2023-03-23T15:51:53;29.00;34.00
15172;DHT22;7686;52.184;9.280;2023-03-23T15:54:18;29.00;34.00
15172;DHT22;7686;52.184;9.280;2023-03-23T15:56:44;29.00;34.00
15172;DHT22;7686;52.184;9.280;2023-03-23T15:59:11;29.20;34.10
15172;DHT22;7686;52.184;9.280;2023-03-23T16:01:39;29.10;33.90
15172;DHT22;7686;52.184;9.280;2023-03-23T16:04:16;29.20;34.00
15172;DHT22;7686;52.184;9.280;2023-03-23T16:06:43;29.20;33.80
15172;DHT22;7686;52.184;9.280;2023-03-23T16:09:15;29.20;33.80
15172;DHT22;7686;52.184;9.280;2023-03-23T16:11:42;29.30;33.70
15172;DHT22;7686;52.184;9.280;2023-03-23T16:14:09;29.30;33.70
15172;DHT22;7686;52.184;9.280;2023-03-23T16:16:37;29.30;33.70
15172;DHT22;7686;52.184;9.280;2023-03-23T16:19:04;29.40;33.70
15172;DHT22;7686;52.184;9.280;2023-03-23T16:21:32;29.40;33.60
15172;DHT22;7686;52.184;9.280;2023-03-23T16:23:59;29.40;33.60
15172;DHT22;7686;52.184;9.280;2023-03-23T16:26:25;29.40;33.50
15172;DHT22;7686;52.184;9.280;2023-03-23T16:28:52;29.40;33.60
15172;DHT22;7686;52.184;9.280;2023-03-23T16:31:35;29.40;33.40
15172;DHT22;7686;52.184;9.280;2023-03-23T16:34:02;29.50;33.40
15172;DHT22;7686;52.184;9.280;2023-03-23T16:36:29;29.60;33.50
15172;DHT22;7686;52.184;9.280;2023-03-23T16:38:56;29.50;33.30
15172;DHT22;7686;52.184;9.280;2023-03-23T16:41:22;29.50;33.40
15172;DHT22;7686;52.184;9.280;2023-03-23T16:43:49;29.50;33.30
15172;DHT22;7686;52.184;9.280;2023-03-23T16:46:16;29.50;33.30
15172;DHT22;7686;52.184;9.280;2023-03-23T16:48:43;29.50;33.30
15172;DHT22;7686;52.184;9.280;2023-03-23T16:51:10;29.50;33.20
15172;DHT22;7686;52.184;9.280;2023-03-23T16:53:36;29.50;33.20
15172;DHT22;7686;52.184;9.280;2023-03-23T16:56:03;29.40;33.20
15172;DHT22;7686;52.184;9.280;2023-03-23T16:58:31;29.40;33.20
15172;DHT22;7686;52.184;9.280;2023-03-23T17:00:57;29.40;33.20
15172;DHT22;7686;52.184;9.280;2023-03-23T17:03:26;29.40;33.20
15172;DHT22;7686;52.184;9.280;2023-03-23T17:05:53;29.40;33.20
15172;DHT22;7686;52.184;9.280;2023-03-23T17:08:20;29.20;33.10
15172;DHT22;7686;52.184;9.280;2023-03-23T17:10:47;29.40;33.20
15172;DHT22;7686;52.184;9.280;2023-03-23T17:13:14;29.30;33.20
15172;DHT22;7686;52.184;9.280;2023-03-23T17:15:43;29.40;33.30
15172;DHT22;7686;52.184;9.280;2023-03-23T17:18:13;29.30;33.20
15172;DHT22;7686;52.184;9.280;2023-03-23T17:20:41;29.30;33.20
15172;DHT22;7686;52.184;9.280;2023-03-23T17:23:08;29.30;33.30
15172;DHT22;7686;52.184;9.280;2023-03-23T17:25:34;29.30;33.20
15172;DHT22;7686;52.184;9.280;2023-03-23T17:28:02;29.30;33.30
15172;DHT22;7686;52.184;9.280;2023-03-23T17:30:33;29.20;33.20
15172;DHT22;7686;52.184;9.280;2023-03-23T17:33:00;29.20;33.30
15172;DHT22;7686;52.184;9.280;2023-03-23T17:35:27;29.20;33.30
15172;DHT22;7686;52.184;9.280;2023-03-23T17:37:54;29.20;33.30
15172;DHT22;7686;52.184;9.280;2023-03-23T17:40:20;29.20;33.30
15172;DHT22;7686;52.184;9.280;2023-03-23T17:42:47;29.20;33.30